Time;durP1;ratioP1;P1;durP2;ratioP2;P2;SDS_P1;SDS_P2;PMS_P1;PMS_P2;Temp;Humidity;BMP_temperature;BMP_pressure;BME280_temperature;BME280_humidity;BME280_pressure;Samples;Min_cycle;Max_cycle;Signal;HPM_P1;HPM_P2
2023/02/20 00:01:31;;;;;;;3.70;2.20;;;;;;;9.33;100.00;101132.22;4961569;28;20039;-81
2023/02/20 00:03:57;;;;;;;5.95;3.33;;;;;;;9.31;100.00;101124.41;4968448;28;20030;-81
2023/02/20 00:06:23;;;;;;;6.38;4.20;;;;;;;9.30;100.00;101131.47;4950231;28;20085;-81
2023/02/20 00:08:48;;;;;;;7.10;2.63;;;;;;;9.30;100.00;101120.13;4968797;28;20471;-81
2023/02/20 00:11:14;;;;;;;5.47;3.85;;;;;;;9.28;100.00;101122.88;4935515;28;20037;-81
2023/02/20 00:13:47;;;;;;;5.28;2.58;;;;;;;9.30;100.00;101120.13;4965939;28;20045;-81
2023/02/20 00:16:13;;;;;;;10.80;6.72;;;;;;;9.27;100.00;101133.53;4968471;28;20827;-81
2023/02/20 00:18:39;;;;;;;5.65;2.58;;;;;;;9.23;100.00;101130.28;4936937;28;20133;-81
2023/02/20 00:21:05;;;;;;;2.42;1.35;;;;;;;9.22;100.00;101133.06;4953013;28;20875;-81
2023/02/20 00:23:33;;;;;;;4.78;2.78;;;;;;;9.21;100.00;101136.63;4955575;28;20042;-81
2023/02/20 00:25:58;;;;;;;2.55;1.27;;;;;;;9.17;100.00;101134.22;4950885;28;20078;-81
2023/02/20 00:28:24;;;;;;;3.90;1.45;;;;;;;9.16;100.00;101132.56;4948856;28;20043;-81
2023/02/20 00:30:50;;;;;;;2.25;0.80;;;;;;;9.16;100.00;101126.44;4938549;28;20458;-81
2023/02/20 00:33:16;;;;;;;2.97;0.80;;;;;;;9.15;100.00;101130.88;4954370;28;20436;-81
2023/02/20 00:35:42;;;;;;;1.20;0.63;;;;;;;9.15;100.00;101133.53;4971326;28;20070;-81
2023/02/20 00:38:08;;;;;;;1.52;0.57;;;;;;;9.14;100.00;101129.19;4968234;28;20109;-81
2023/02/20 00:40:34;;;;;;;2.70;0.60;;;;;;;9.16;100.00;101134.34;4932287;28;20391;-81
2023/02/20 00:43:01;;;;;;;1.67;0.50;;;;;;;9.18;100.00;101135.06;4950422;28;20046;-81
2023/02/20 00:45:27;;;;;;;2.60;0.60;;;;;;;9.20;100.00;101135.81;4956572;28;20026;-81
2023/02/20 00:47:54;;;;;;;0.60;0.40;;;;;;;9.26;100.00;101126.56;4921068;28;20089;-81
2023/02/20 00:50:23;;;;;;;2.60;1.00;;;;;;;9.29;100.00;101131.59;4933732;28;20134;-81
2023/02/20 00:52:50;;;;;;;1.50;0.60;;;;;;;9.33;100.00;101135.69;4945149;28;20037;-81
2023/02/20 00:55:16;;;;;;;1.42;0.55;;;;;;;9.38;100.00;101132.69;4947537;28;20119;-81
2023/02/20 00:57:44;;;;;;;2.47;0.70;;;;;;;9.39;100.00;101129.94;4933445;29;20455;-81
2023/02/20 01:00:21;;;;;;;0.90;0.57;;;;;;;9.48;100.00;101132.81;4968159;28;20043;-81
2023/02/20 01:02:47;;;;;;;2.80;0.60;;;;;;;9.47;100.00;101121.44;4928312;28;20034;-81
2023/02/20 01:05:13;;;;;;;0.80;0.50;;;;;;;9.49;100.00;101123.94;4948493;28;20081;-81
2023/02/20 01:07:38;;;;;;;2.95;0.63;;;;;;;9.53;100.00;101114.81;4970623;28;20062;-81
2023/02/20 01:10:07;;;;;;;2.50;0.40;;;;;;;9.54;100.00;101113.84;4953189;28;20042;-81
2023/02/20 01:12:33;;;;;;;6.03;0.57;;;;;;;9.58;100.00;101106.53;4948885;28;20475;-78
2023/02/20 01:14:59;;;;;;;1.17;0.40;;;;;;;9.60;100.00;101110.75;4971796;28;20046;-78
2023/02/20 01:17:27;;;;;;;3.60;0.50;;;;;;;9.62;100.00;101111.44;4953424;28;20399;-81
2023/02/20 01:19:54;;;;;;;1.48;0.40;;;;;;;9.63;100.00;101107.03;4934791;28;20035;-81
2023/02/20 01:22:21;;;;;;;2.00;0.30;;;;;;;9.64;100.00;101106.91;4969655;28;20064;-81
2023/02/20 01:24:48;;;;;;;0.90;0.40;;;;;;;9.66;100.00;101106.78;4948838;28;20046;-81
2023/02/20 01:27:15;;;;;;;1.58;0.45;;;;;;;9.68;100.00;101107.50;4892054;28;20038;-81
2023/02/20 01:29:41;;;;;;;0.70;0.30;;;;;;;9.67;100.00;101101.38;4940241;28;20038;-81
2023/02/20 01:32:12;;;;;;;1.27;0.50;;;;;;;9.72;100.00;101102.78;4970117;28;20408;-81
2023/02/20 01:34:38;;;;;;;1.90;0.43;;;;;;;9.68;100.00;101099.59;4932931;28;20046;-81
2023/02/20 01:37:04;;;;;;;0.52;0.30;;;;;;;9.67;100.00;101096.09;4939022;28;20098;-81
2023/02/20 01:39:32;;;;;;;2.05;0.40;;;;;;;9.66;100.00;101096.22;4972932;28;20056;-81
2023/02/20 01:42:06;;;;;;;0.30;0.30;;;;;;;9.71;100.00;101095.84;4957312;28;20117;-81
2023/02/20 01:44:35;;;;;;;1.98;0.45;;;;;;;9.71;100.00;101101.97;4954242;28;20035;-81
2023/02/20 01:47:07;;;;;;;2.95;0.40;;;;;;;9.68;100.00;101092.47;4941130;28;20034;-81
2023/02/20 01:49:50;;;;;;;2.17;0.43;;;;;;;9.70;100.00;101102.09;4974192;28;20035;-81
2023/02/20 01:52:22;;;;;;;1.10;0.35;;;;;;;9.68;100.00;101095.13;4935159;28;20061;-81
2023/02/20 01:55:06;;;;;;;1.90;0.50;;;;;;;9.71;100.00;101099.34;4939344;28;20126;-81
2023/02/20 01:57:35;;;;;;;1.10;0.45;;;;;;;9.68;100.00;101094.31;4969716;28;20042;-81
2023/02/20 02:00:08;;;;;;;1.20;0.40;;;;;;;9.71;100.00;101090.56;4947835;29;20035;-81
2023/02/20 02:02:45;;;;;;;1.00;0.38;;;;;;;9.71;100.00;101090.56;4955051;28;20073;-81
2023/02/20 02:05:11;;;;;;;2.95;0.28;;;;;;;9.68;100.00;101086.38;4955294;28;20577;-82
2023/02/20 02:07:38;;;;;;;0.77;0.30;;;;;;;9.70;100.00;101084.44;4937766;28;20038;-81
2023/02/20 02:10:11;;;;;;;0.30;0.20;;;;;;;9.73;100.00;101083.38;4973538;28;20114;-81
2023/02/20 02:12:38;;;;;;;3.80;0.30;;;;;;;9.71;100.00;101088.78;4970592;28;20049;-81
2023/02/20 02:15:20;;;;;;;2.40;0.40;;;;;;;9.73;100.00;101089.47;4931101;29;20089;-81
2023/02/20 02:18:04;;;;;;;1.60;0.50;;;;;;;9.70;100.00;101081.78;4949702;29;20035;-81
2023/02/20 02:20:33;;;;;;;1.88;0.30;;;;;;;9.72;100.00;101090.44;4946546;28;20094;-82
2023/02/20 02:23:30;;;;;;;2.80;0.32;;;;;;;9.76;100.00;101085.75;4947147;28;20069;-81
2023/02/20 02:26:14;;;;;;;2.70;0.45;;;;;;;9.80;100.00;101084.53;4972297;28;20114;-81
2023/02/20 02:29:09;;;;;;;0.65;0.20;;;;;;;9.81;100.00;101070.38;4971577;28;20051;-81
2023/02/20 02:31:56;;;;;;;1.48;0.40;;;;;;;9.82;100.00;101069.44;4952658;28;20074;-81
2023/02/20 02:34:45;;;;;;;1.00;0.30;;;;;;;9.83;100.00;101060.53;4921639;28;20031;-81
2023/02/20 02:37:29;;;;;;;1.00;0.60;;;;;;;9.84;100.00;101062.22;4954485;28;20064;-78
2023/02/20 02:40:18;;;;;;;2.55;0.30;;;;;;;9.84;100.00;101066.66;4938109;28;22254;-78
2023/02/20 02:42:44;;;;;;;1.52;0.30;;;;;;;9.81;100.00;101067.72;4972231;28;20491;-81
2023/02/20 02:45:14;;;;;;;1.67;0.40;;;;;;;9.83;100.00;101065.81;4952319;28;20038;-81
2023/02/20 02:47:53;;;;;;;2.97;0.30;;;;;;;9.87;100.00;101069.91;4940406;28;20527;-81
2023/02/20 02:50:31;;;;;;;2.17;0.30;;;;;;;9.86;100.00;101062.94;4966110;28;20031;-81
2023/02/20 02:52:58;;;;;;;4.22;0.50;;;;;;;9.87;100.00;101061.13;4940307;28;20042;-81
2023/02/20 02:55:27;;;;;;;2.22;0.45;;;;;;;9.88;100.00;101062.81;4949085;28;20035;-81
2023/02/20 02:57:53;;;;;;;1.63;0.32;;;;;;;9.87;100.00;101066.41;4950412;28;20090;-81
2023/02/20 03:00:32;;;;;;;3.28;0.50;;;;;;;9.90;100.00;101058.25;4949380;28;20031;-81
2023/02/20 03:03:12;;;;;;;3.10;0.30;;;;;;;9.88;100.00;101052.25;4943784;28;20139;-81
2023/02/20 03:06:00;;;;;;;1.52;0.40;;;;;;;9.87;100.00;101048.78;4954591;28;20470;-81
2023/02/20 03:08:32;;;;;;;2.65;0.40;;;;;;;9.83;100.00;101057.03;4952748;28;20038;-81
2023/02/20 03:11:11;;;;;;;3.92;0.35;;;;;;;9.83;100.00;101054.41;4952361;28;20039;-81
2023/02/20 03:16:48;;;;;;;3.38;0.35;;;;;;;9.83;100.00;101043.84;4953965;28;20045;-81
2023/02/20 03:19:18;;;;;;;2.33;0.40;;;;;;;9.81;100.00;101046.59;4935720;28;20037;-81
2023/02/20 03:21:47;;;;;;;4.65;0.68;;;;;;;9.82;100.00;101039.53;4949121;28;20542;-81
2023/02/20 03:24:18;;;;;;;2.97;0.63;;;;;;;9.80;100.00;101034.38;4942517;28;20858;-81
2023/02/20 03:26:45;;;;;;;2.15;0.30;;;;;;;9.82;100.00;101036.91;4954425;28;20487;-82
2023/02/20 03:29:26;;;;;;;6.63;0.40;;;;;;;9.84;100.00;101032.34;4939605;28;20034;-81
2023/02/20 03:43:26;;;;;;;2.83;0.40;;;;;;;9.80;100.00;101047.59;4954680;28;20045;-80
2023/02/20 03:46:02;;;;;;;0.63;0.45;;;;;;;9.82;100.00;101042.19;4953478;28;20511;-80
2023/02/20 03:48:36;;;;;;;1.83;0.30;;;;;;;9.83;100.00;101044.69;4938124;28;20125;-80
2023/02/20 03:51:02;;;;;;;2.05;0.40;;;;;;;9.83;100.00;101035.91;4936289;29;20043;-80
2023/02/20 03:53:35;;;;;;;6.65;0.47;;;;;;;9.84;100.00;101038.47;4966831;28;20026;-80
2023/02/20 03:56:08;;;;;;;3.33;0.45;;;;;;;9.86;100.00;101033.88;4954888;28;20049;-80
2023/02/20 03:58:39;;;;;;;6.75;0.52;;;;;;;9.86;100.00;101030.44;4953540;28;20042;-80
2023/02/20 04:01:08;;;;;;;5.60;0.50;;;;;;;9.86;100.00;101036.53;4946279;28;20035;-80
2023/02/20 04:03:40;;;;;;;2.78;0.40;;;;;;;9.89;100.00;101030.19;4962630;28;20039;-80
2023/02/20 04:06:08;;;;;;;3.78;0.40;;;;;;;9.89;100.00;101033.63;4949509;28;20035;-80
2023/02/20 04:08:41;;;;;;;4.57;0.30;;;;;;;9.92;100.00;101035.19;4912918;29;20059;-80
2023/02/20 04:11:13;;;;;;;2.80;0.30;;;;;;;9.92;100.00;101040.47;4946374;28;20512;-80
2023/02/20 04:13:40;;;;;;;2.88;0.47;;;;;;;9.89;100.00;101038.91;4954243;28;20114;-80
2023/02/20 04:16:07;;;;;;;6.15;0.60;;;;;;;9.88;100.00;101034.59;4939463;28;20038;-80
2023/02/20 04:18:34;;;;;;;5.40;0.50;;;;;;;9.88;100.00;101047.81;4955710;28;20125;-80
2023/02/20 04:21:09;;;;;;;1.25;0.40;;;;;;;9.88;100.00;101041.69;4968056;28;20039;-80
2023/02/20 04:23:42;;;;;;;2.50;0.40;;;;;;;9.88;100.00;101039.03;4948237;29;20043;-80
2023/02/20 04:26:20;;;;;;;4.00;0.70;;;;;;;9.88;100.00;101033.75;4935560;28;20078;-80
2023/02/20 04:28:47;;;;;;;1.10;0.40;;;;;;;9.88;100.00;101044.31;4936099;28;20035;-80
2023/02/20 04:31:17;;;;;;;2.40;0.50;;;;;;;9.88;100.00;101029.31;4951021;28;20058;-80
2023/02/20 04:33:43;;;;;;;4.18;0.60;;;;;;;9.89;100.00;101020.44;4953186;28;20031;-80
2023/02/20 04:36:16;;;;;;;3.45;0.52;;;;;;;9.88;100.00;101020.56;4935427;28;20042;-80
2023/02/20 04:38:42;;;;;;;5.57;0.50;;;;;;;9.89;100.00;101022.25;4924470;28;20031;-80
2023/02/20 04:41:12;;;;;;;5.45;1.05;;;;;;;9.89;100.00;101023.06;4953402;28;20031;-80
2023/02/20 04:43:39;;;;;;;4.20;0.32;;;;;;;9.91;100.00;101021.16;4922262;28;20039;-80
2023/02/20 04:46:05;;;;;;;3.20;0.60;;;;;;;9.93;100.00;101015.75;4935326;29;20085;-80
2023/02/20 04:48:32;;;;;;;3.90;0.45;;;;;;;9.92;100.00;101011.44;4934384;28;20441;-80
2023/02/20 04:50:59;;;;;;;3.38;0.70;;;;;;;9.93;100.00;101021.88;4953786;28;20042;-80
2023/02/20 04:53:25;;;;;;;4.05;0.57;;;;;;;9.94;100.00;101025.34;4951917;28;20023;-80
2023/02/20 04:55:51;;;;;;;4.55;0.57;;;;;;;9.96;100.00;101026.06;4953560;28;20035;-80
2023/02/20 04:58:20;;;;;;;5.10;0.40;;;;;;;9.97;100.00;101027.72;4949560;29;20062;-80
2023/02/20 05:00:50;;;;;;;2.30;0.40;;;;;;;9.97;100.00;101022.44;4950522;29;20399;-81
2023/02/20 05:03:16;;;;;;;2.97;0.30;;;;;;;9.97;100.00;101021.63;4943462;28;20027;-81
2023/02/20 05:05:42;;;;;;;6.05;0.70;;;;;;;9.98;100.00;101018.00;4950098;28;20100;-80
2023/02/20 05:08:08;;;;;;;4.20;1.23;;;;;;;9.99;100.00;101019.66;4952383;29;20043;-80
2023/02/20 05:10:35;;;;;;;5.22;0.45;;;;;;;10.01;100.00;101015.09;4947704;29;20189;-80
2023/02/20 05:13:01;;;;;;;5.88;0.50;;;;;;;10.01;100.00;101021.25;4950296;28;20028;-81
2023/02/20 05:15:28;;;;;;;3.63;0.50;;;;;;;10.01;100.00;101018.59;4934943;29;20464;-80
2023/02/20 05:17:54;;;;;;;4.90;0.73;;;;;;;10.01;100.00;101015.09;4949959;29;20035;-80
2023/02/20 05:20:20;;;;;;;3.75;1.58;;;;;;;9.99;100.00;101027.59;4943331;28;20047;-80
2023/02/20 05:22:46;;;;;;;5.35;0.50;;;;;;;10.00;100.00;101008.16;4951036;29;20039;-80
2023/02/20 05:25:14;;;;;;;5.55;0.70;;;;;;;10.02;100.00;101007.06;4950692;29;20404;-80
2023/02/20 05:27:41;;;;;;;3.30;0.47;;;;;;;10.03;100.00;101013.19;4953379;29;20031;-80
2023/02/20 05:30:08;;;;;;;4.28;1.33;;;;;;;10.04;100.00;100991.94;4953479;29;20043;-81
2023/02/20 05:32:34;;;;;;;3.67;0.40;;;;;;;10.01;100.00;101002.75;4894724;28;20046;-80
2023/02/20 05:35:00;;;;;;;7.00;0.73;;;;;;;10.01;100.00;101013.31;4955571;28;20039;-81
2023/02/20 05:37:27;;;;;;;3.00;0.40;;;;;;;10.01;100.00;101013.31;4947057;28;20508;-82
2023/02/20 05:39:53;;;;;;;6.60;2.13;;;;;;;10.00;100.00;101008.97;4944478;28;20102;-80
2023/02/20 05:42:21;;;;;;;4.32;0.75;;;;;;;9.99;100.00;101015.25;4953195;29;20086;-80
2023/02/20 05:44:48;;;;;;;6.32;0.90;;;;;;;10.01;100.00;101023.88;4954253;28;20125;-80
2023/02/20 05:47:15;;;;;;;5.68;1.10;;;;;;;10.01;100.00;101012.47;4965617;28;20038;-80
2023/02/20 05:49:40;;;;;;;5.22;1.15;;;;;;;10.00;100.00;101011.63;4934571;29;20043;-80
2023/02/20 05:52:10;;;;;;;4.78;0.70;;;;;;;9.99;100.00;101020.53;4956698;28;20034;-81
2023/02/20 05:54:37;;;;;;;3.58;0.55;;;;;;;10.02;100.00;101016.78;4953679;29;20137;-80
2023/02/20 05:57:03;;;;;;;6.47;0.80;;;;;;;10.03;100.00;101021.13;4934966;29;20149;-80
2023/02/20 05:59:29;;;;;;;4.20;0.70;;;;;;;10.00;100.00;101022.19;4958181;28;20039;-81
2023/02/20 06:01:56;;;;;;;8.10;0.60;;;;;;;10.00;100.00;101029.28;4949083;28;20035;-80
2023/02/20 06:04:22;;;;;;;4.53;0.50;;;;;;;9.98;100.00;101034.69;4952028;29;20035;-80
2023/02/20 06:06:48;;;;;;;3.42;0.43;;;;;;;9.97;100.00;101035.63;4950591;29;20037;-80
2023/02/20 06:09:15;;;;;;;3.97;0.80;;;;;;;9.97;100.00;101025.06;4955435;28;20035;-80
2023/02/20 06:11:48;;;;;;;6.57;0.70;;;;;;;9.98;100.00;101032.06;4933411;29;20038;-80
2023/02/20 06:14:16;;;;;;;6.72;0.75;;;;;;;9.98;100.00;101028.56;4948897;28;20043;-80
2023/02/20 06:16:41;;;;;;;5.45;0.80;;;;;;;9.96;100.00;101018.13;4953126;29;20102;-80
2023/02/20 06:19:07;;;;;;;8.05;0.80;;;;;;;9.96;100.00;101019.91;4953619;29;20628;-80
2023/02/20 06:21:34;;;;;;;5.43;0.70;;;;;;;9.93;100.00;101013.09;4953000;29;20038;-80
2023/02/20 06:24:00;;;;;;;4.15;1.02;;;;;;;9.92;100.00;101014.91;4951675;29;20094;-80
2023/02/20 06:26:26;;;;;;;4.47;0.57;;;;;;;9.90;100.00;101019.47;4952076;29;20042;-80
2023/02/20 06:28:53;;;;;;;7.93;0.90;;;;;;;9.91;100.00;101018.50;4951745;29;20035;-80
2023/02/20 06:31:21;;;;;;;8.77;0.68;;;;;;;9.91;100.00;101010.59;4954107;28;20050;-80
2023/02/20 06:33:47;;;;;;;5.97;0.77;;;;;;;9.90;100.00;101011.56;4953858;28;20480;-80
2023/02/20 06:36:24;;;;;;;4.93;0.50;;;;;;;9.93;100.00;101002.53;4953165;28;20039;-80
2023/02/20 06:38:51;;;;;;;2.70;0.65;;;;;;;9.87;100.00;101011.81;4952425;29;20392;-81
2023/02/20 06:41:17;;;;;;;4.85;0.80;;;;;;;9.88;100.00;101016.13;4952774;29;20392;-81
2023/02/20 06:43:43;;;;;;;5.45;0.57;;;;;;;9.87;100.00;101025.03;4951836;28;20571;-81
2023/02/20 06:46:09;;;;;;;5.35;0.73;;;;;;;9.89;100.00;101019.63;4953102;28;20027;-80
2023/02/20 06:48:42;;;;;;;3.60;0.73;;;;;;;9.89;100.00;101025.72;4945788;28;20572;-80
2023/02/20 06:51:07;;;;;;;4.28;0.50;;;;;;;9.90;100.00;101021.28;4950550;29;20043;-80
2023/02/20 06:53:37;;;;;;;7.55;0.68;;;;;;;9.89;100.00;101031.00;4949098;29;20035;-80
2023/02/20 06:56:05;;;;;;;4.55;0.70;;;;;;;9.91;100.00;101020.31;4951607;28;20035;-81
2023/02/20 06:58:31;;;;;;;2.70;0.45;;;;;;;9.88;100.00;101026.69;4957764;28;20055;-80
2023/02/20 07:00:58;;;;;;;3.63;0.68;;;;;;;9.89;100.00;101028.34;4937840;28;20027;-81
2023/02/20 07:03:24;;;;;;;4.72;0.50;;;;;;;9.87;100.00;101030.31;4952560;28;20043;-80
2023/02/20 07:05:50;;;;;;;2.72;0.45;;;;;;;9.87;100.00;101029.44;4952861;28;20039;-80
2023/02/20 07:08:15;;;;;;;10.43;2.05;;;;;;;9.87;100.00;101025.03;4952645;29;20035;-80
2023/02/20 07:10:42;;;;;;;4.63;0.50;;;;;;;9.89;100.00;101031.00;4945108;28;20040;-80
2023/02/20 07:13:07;;;;;;;4.82;0.60;;;;;;;9.90;100.00;101021.28;4956138;28;20020;-80
2023/02/20 07:15:33;;;;;;;2.53;0.43;;;;;;;9.91;100.00;101026.44;4945742;28;20038;-80
2023/02/20 07:17:59;;;;;;;2.10;0.30;;;;;;;9.91;100.00;101025.59;4953558;29;20027;-80
2023/02/20 07:20:25;;;;;;;3.67;0.50;;;;;;;9.92;100.00;101025.47;4948574;28;20027;-80
2023/02/20 07:22:53;;;;;;;4.35;0.50;;;;;;;9.93;100.00;101019.22;4951974;29;20844;-81
2023/02/20 07:25:19;;;;;;;3.72;0.63;;;;;;;9.94;100.00;101027.97;4950833;29;20046;-80
2023/02/20 07:27:45;;;;;;;1.95;0.40;;;;;;;9.95;100.00;101031.47;4950383;28;20022;-80
2023/02/20 07:30:11;;;;;;;3.90;0.30;;;;;;;9.98;100.00;101036.50;4946309;28;20073;-80
2023/02/20 07:32:37;;;;;;;9.75;0.50;;;;;;;10.00;100.00;101029.28;4951780;28;20037;-82
2023/02/20 07:35:03;;;;;;;2.55;0.50;;;;;;;10.02;100.00;101028.19;4950578;29;20494;-80
2023/02/20 07:37:30;;;;;;;6.50;0.60;;;;;;;10.04;100.00;101031.56;4949703;28;20041;-80
2023/02/20 07:39:56;;;;;;;3.95;0.55;;;;;;;10.05;100.00;101035.00;4953105;28;20043;-81
2023/02/20 07:42:22;;;;;;;1.75;0.40;;;;;;;10.05;100.00;101025.28;4961132;28;20035;-81
2023/02/20 07:44:50;;;;;;;1.42;0.47;;;;;;;10.08;100.00;101032.13;4941601;28;20032;-81
2023/02/20 07:47:15;;;;;;;6.05;0.63;;;;;;;10.08;100.00;101015.44;4948855;29;20129;-81
2023/02/20 07:49:42;;;;;;;4.30;0.43;;;;;;;10.10;100.00;101016.13;4945076;28;20082;-81
2023/02/20 07:52:08;;;;;;;3.05;0.40;;;;;;;10.11;100.00;101021.31;4954117;28;20066;-80
2023/02/20 07:54:34;;;;;;;4.68;0.40;;;;;;;10.14;100.00;101017.56;4947127;28;20476;-80
2023/02/20 07:56:59;;;;;;;3.45;0.30;;;;;;;10.18;100.00;101019.00;4955470;28;20046;-81
2023/02/20 07:59:25;;;;;;;2.78;0.20;;;;;;;10.19;100.00;101004.84;4970810;28;20030;-80
2023/02/20 08:01:51;;;;;;;0.98;0.30;;;;;;;10.20;100.00;100998.56;4966915;28;20487;-81
2023/02/20 08:04:17;;;;;;;2.13;0.20;;;;;;;10.22;100.00;101024.88;4965825;28;20034;-80
2023/02/20 08:06:42;;;;;;;4.55;0.60;;;;;;;10.24;100.00;101012.38;4945597;28;20038;-80
2023/02/20 08:09:08;;;;;;;2.92;0.28;;;;;;;10.28;100.00;101013.78;4969336;28;20117;-81
2023/02/20 08:11:36;;;;;;;1.83;0.30;;;;;;;10.33;100.00;101024.81;4938516;28;20042;-80
2023/02/20 08:14:03;;;;;;;2.55;0.40;;;;;;;10.33;100.00;101016.03;4937265;28;20158;-80
2023/02/20 08:16:29;;;;;;;3.35;0.30;;;;;;;10.32;100.00;101017.84;4969258;28;20038;-81
2023/02/20 08:18:55;;;;;;;2.03;0.20;;;;;;;10.33;100.00;101016.03;4949046;28;20655;-80
2023/02/20 08:21:21;;;;;;;1.73;0.22;;;;;;;10.35;100.00;101008.84;4952661;28;20391;-80
2023/02/20 08:23:47;;;;;;;1.95;0.50;;;;;;;10.36;100.00;101010.50;4935482;28;20030;-81
2023/02/20 08:26:13;;;;;;;1.38;0.20;;;;;;;10.37;100.00;101004.22;4970135;28;20034;-80
2023/02/20 08:28:38;;;;;;;2.05;0.30;;;;;;;10.41;100.00;101010.97;4969483;28;20038;-81
2023/02/20 08:31:05;;;;;;;0.00;0.00;;;;;;;10.43;100.00;101017.78;4970736;28;20118;-81
2023/02/20 08:33:31;;;;;;;2.05;0.20;;;;;;;10.46;100.00;101016.72;4953566;28;20137;-80
2023/02/20 08:35:56;;;;;;;1.40;0.20;;;;;;;10.47;100.00;101001.69;4935476;28;20495;-80
2023/02/20 08:38:35;;;;;;;0.93;0.30;;;;;;;10.53;100.00;100999.38;4956385;28;20043;-80
2023/02/20 08:41:06;;;;;;;1.73;0.13;;;;;;;10.55;100.00;100993.94;4945136;28;20039;-80
2023/02/20 08:43:34;;;;;;;0.68;0.13;;;;;;;10.56;100.00;100995.63;4953940;28;20038;-81
2023/02/20 08:46:00;;;;;;;1.85;0.20;;;;;;;10.54;100.00;100987.00;4938629;28;20048;-80
2023/02/20 08:48:27;;;;;;;2.40;0.20;;;;;;;10.53;100.00;100982.66;4970159;28;20035;-80
2023/02/20 08:50:53;;;;;;;1.60;0.20;;;;;;;10.56;100.00;100985.03;4971475;28;20784;-80
2023/02/20 08:53:19;;;;;;;1.95;0.25;;;;;;;10.58;100.00;100984.91;4971947;28;20035;-80
2023/02/20 08:55:45;;;;;;;1.10;0.10;;;;;;;10.57;100.00;100985.91;4972394;28;20110;-80
2023/02/20 08:58:11;;;;;;;2.65;0.30;;;;;;;10.60;100.00;100985.63;4971602;28;20121;-80
2023/02/20 09:00:37;;;;;;;1.33;0.13;;;;;;;10.65;100.00;100991.38;4971147;28;20117;-80
2023/02/20 09:03:06;;;;;;;2.20;0.13;;;;;;;10.65;100.00;100999.31;4950182;28;20042;-80
2023/02/20 09:05:33;;;;;;;2.83;0.47;;;;;;;10.69;100.00;100989.31;4971056;28;20038;-80
2023/02/20 09:08:00;;;;;;;3.20;0.22;;;;;;;10.73;100.00;100993.34;4952901;28;20035;-80
2023/02/20 09:10:26;;;;;;;1.08;0.10;;;;;;;10.75;100.00;101000.19;4971289;28;20027;-81
2023/02/20 09:12:51;;;;;;;1.33;0.10;;;;;;;10.76;100.00;100993.94;4968661;28;20554;-82
2023/02/20 09:15:17;;;;;;;1.75;0.30;;;;;;;10.75;100.00;100994.06;4969333;28;20030;-79
2023/02/20 09:17:45;;;;;;;0.65;0.22;;;;;;;10.78;100.00;100985.88;4970808;28;20038;-81
2023/02/20 09:20:12;;;;;;;2.85;0.30;;;;;;;10.81;100.00;100984.75;4951246;28;20030;-81
2023/02/20 09:22:37;;;;;;;1.23;0.30;;;;;;;10.79;100.00;100988.38;4938600;28;20034;-81
2023/02/20 09:25:04;;;;;;;1.20;0.20;;;;;;;10.86;100.00;100995.78;4952659;28;20038;-81
2023/02/20 09:27:30;;;;;;;0.57;0.13;;;;;;;10.82;100.00;100987.28;4936736;28;20031;-81
2023/02/20 09:29:55;;;;;;;3.78;0.20;;;;;;;10.84;100.00;100995.91;4964080;28;20038;-81
2023/02/20 09:32:21;;;;;;;1.33;0.10;;;;;;;10.87;100.00;101006.22;4972944;28;20076;-81
2023/02/20 09:34:47;;;;;;;1.15;0.10;;;;;;;10.88;100.00;101001.75;4978096;28;20026;-81
2023/02/20 09:37:13;;;;;;;0.82;0.20;;;;;;;10.91;100.00;100996.19;4961885;28;20068;-81
2023/02/20 09:39:39;;;;;;;2.05;0.10;;;;;;;10.92;100.00;100984.69;4937143;28;20035;-81
2023/02/20 09:42:36;;;;;;;2.08;0.10;;;;;;;10.95;100.00;100997.63;4949954;28;20093;-81
2023/02/20 09:45:10;;;;;;;1.23;0.20;;;;;;;10.95;100.00;101002.91;4968971;28;20442;-81
2023/02/20 09:47:54;;;;;;;1.05;0.20;;;;;;;10.96;100.00;100980.78;4970804;28;20042;-81
2023/02/20 09:50:42;;;;;;;1.45;0.20;;;;;;;10.92;100.00;100990.78;4969979;28;20562;-81
2023/02/20 09:53:50;;;;;;;0.80;0.10;;;;;;;10.94;100.00;100989.84;4974365;28;20041;-81
2023/02/20 09:56:18;;;;;;;;;;;;;;;10.86;100.00;101001.91;4931049;29;20047;-81
2023/02/20 09:58:46;;;;;;;0.68;0.10;;;;;;;10.88;100.00;100993.81;4948216;29;20020;-81
2023/02/20 10:01:16;;;;;;;3.97;0.30;;;;;;;10.89;100.00;101006.91;4948467;28;20099;-81
2023/02/20 10:03:51;;;;;;;0.65;0.10;;;;;;;10.92;100.00;101000.53;4936613;29;20035;-81
2023/02/20 10:06:20;;;;;;;0.70;0.10;;;;;;;10.94;100.00;101001.22;4955284;28;20514;-81
2023/02/20 10:08:50;;;;;;;1.48;0.20;;;;;;;10.95;100.00;101012.66;4957138;28;20035;-81
2023/02/20 10:11:45;;;;;;;2.15;0.20;;;;;;;10.97;100.00;101016.88;4954188;28;20494;-81
2023/02/20 10:14:26;;;;;;;2.38;0.45;;;;;;;11.01;100.00;101012.97;4945524;29;20031;-81
2023/02/20 10:17:07;;;;;;;2.28;0.20;;;;;;;11.01;100.00;101014.75;4946059;29;20127;-81
2023/02/20 10:19:39;;;;;;;1.98;0.17;;;;;;;11.00;100.00;101013.09;4954880;28;20083;-82
2023/02/20 10:22:11;;;;;;;0.98;0.20;;;;;;;10.98;100.00;101015.03;4952570;29;20071;-81
2023/02/20 10:24:56;;;;;;;0.68;0.10;;;;;;;11.03;100.00;101018.97;4950370;28;20031;-81
2023/02/20 10:27:37;;;;;;;0.47;0.10;;;;;;;10.98;100.00;101009.75;4925923;29;20035;-81
2023/02/20 10:30:05;;;;;;;0.77;0.20;;;;;;;10.97;100.00;101008.94;4948597;29;20369;-81
2023/02/20 10:32:33;;;;;;;1.02;0.10;;;;;;;10.96;100.00;101007.22;4951152;29;20035;-81
2023/02/20 10:35:10;;;;;;;1.27;0.20;;;;;;;11.02;100.00;101017.28;4951802;28;20436;-80
2023/02/20 10:37:51;;;;;;;1.08;0.10;;;;;;;11.03;100.00;101011.03;4950640;29;20063;-81
2023/02/20 10:40:19;;;;;;;0.75;0.20;;;;;;;11.02;100.00;101016.47;4929040;29;20396;-81
2023/02/20 10:43:10;;;;;;;1.10;0.10;;;;;;;11.08;100.00;101015.94;4960570;28;20047;-81
2023/02/20 10:45:52;;;;;;;3.40;0.22;;;;;;;11.08;100.00;101009.78;4937022;29;20460;-81
2023/02/20 10:48:18;;;;;;;1.33;0.30;;;;;;;11.06;100.00;101014.38;4953547;28;20491;-81
2023/02/20 10:50:50;;;;;;;0.63;0.10;;;;;;;11.07;100.00;101013.41;4949047;29;20118;-81
2023/02/20 10:53:55;;;;;;;2.17;0.10;;;;;;;11.06;100.00;101009.06;4949923;29;20067;-81
2023/02/20 10:56:33;;;;;;;1.70;0.20;;;;;;;11.11;100.00;101012.16;4946097;28;20043;-81
2023/02/20 10:59:09;;;;;;;0.30;0.20;;;;;;;11.12;100.00;101005.88;4968305;28;20035;-81
2023/02/20 11:01:36;;;;;;;0.77;0.20;;;;;;;11.09;100.00;101004.34;4953084;28;20549;-80
2023/02/20 11:04:20;;;;;;;1.45;0.20;;;;;;;11.16;100.00;101012.59;4980983;28;20057;-81
2023/02/20 11:06:54;;;;;;;1.50;0.20;;;;;;;11.21;100.00;101006.91;4960295;28;20046;-81
2023/02/20 11:09:22;;;;;;;3.53;0.52;;;;;;;11.24;100.00;101004.00;4958242;28;20039;-81
2023/02/20 11:11:48;;;;;;;0.55;0.20;;;;;;;11.26;100.00;101002.06;4952280;28;20494;-81
2023/02/20 11:14:19;;;;;;;2.10;0.30;;;;;;;11.32;100.00;100990.94;4973443;28;20061;-81
2023/02/20 11:16:57;;;;;;;1.00;0.10;;;;;;;11.34;100.00;100996.09;4957809;28;20028;-78
2023/02/20 11:19:31;;;;;;;1.05;0.20;;;;;;;11.37;100.00;100988.69;4953832;28;20138;-78
2023/02/20 11:21:57;;;;;;;1.58;0.22;;;;;;;11.35;100.00;100995.09;4957233;28;20038;-81
2023/02/20 11:24:23;;;;;;;1.73;0.20;;;;;;;11.37;100.00;100985.22;4972664;28;20089;-81
2023/02/20 11:26:54;;;;;;;0.93;0.20;;;;;;;11.45;100.00;100980.06;4923048;28;20431;-80
2023/02/20 11:29:22;;;;;;;0.55;0.15;;;;;;;11.49;100.00;100976.19;4909008;28;20058;-81
2023/02/20 11:31:48;;;;;;;1.10;0.17;;;;;;;11.51;100.00;100978.69;4955220;28;21163;-80
2023/02/20 11:34:23;;;;;;;0.63;0.10;;;;;;;11.56;100.00;100975.63;4973702;28;20034;-81
2023/02/20 11:36:55;;;;;;;0.22;0.10;;;;;;;11.59;100.00;100972.72;4950227;28;20047;-81
2023/02/20 11:39:32;;;;;;;0.63;0.10;;;;;;;11.62;100.00;100975.09;4973748;28;20040;-80
2023/02/20 11:42:10;;;;;;;1.20;0.20;;;;;;;11.64;100.00;100978.44;4972176;28;20439;-80
2023/02/20 11:44:36;;;;;;;0.22;0.15;;;;;;;11.66;100.00;100977.31;4954710;28;20479;-81
2023/02/20 11:47:26;;;;;;;1.08;0.10;;;;;;;11.69;100.00;100970.09;4968445;28;20038;-80
2023/02/20 11:50:13;;;;;;;1.13;0.13;;;;;;;11.74;100.00;100978.41;4968786;28;20492;-81